Time,TemperatureF,DewpointF,PressureIn,WindDirection,WindDirectionDegrees,WindSpeedMPH,WindSpeedGustMPH,Humidity,HourlyPrecipIn,Conditions,Clouds,dailyrainin,SoftwareType,DateUTC
2013-02-14 00:00:00,29.4,27.4,29.81,SE,131,1.0,2.0,92,0.00,,---,0.00,VWS V14.00,2013-02-14 05:00:00,
2013-02-14 00:30:00,28.5,26.7,29.81,ESE,116,1.0,2.0,93,0.00,,---,0.00,VWS V14.00,2013-02-14 05:30:00,
2013-02-14 01:00:00,29.3,27.8,29.81,ESE,117,1.0,2.0,94,0.00,,---,0.00,VWS V14.00,2013-02-14 06:00:00,
2013-02-14 01:30:00,30.6,28.8,29.81,SE,131,0.0,1.0,93,0.00,,---,0.00,VWS V14.00,2013-02-14 06:30:00,
2013-02-14 02:00:00,32.2,30.1,29.80,SSW,197,1.0,1.0,92,0.00,,---,0.00,VWS V14.00,2013-02-14 07:00:00,
2013-02-14 02:30:00,33.5,30.9,29.80,SSW,198,1.0,4.0,90,0.00,,---,0.00,VWS V14.00,2013-02-14 07:30:00,
2013-02-14 03:00:00,33.4,30.5,29.81,SW,218,1.0,2.0,89,0.00,,---,0.00,VWS V14.00,2013-02-14 08:00:00,
2013-02-14 03:30:00,33.8,30.6,29.81,SSW,195,2.0,5.0,88,0.00,,---,0.00,VWS V14.00,2013-02-14 08:30:00,
2013-02-14 04:00:00,33.6,30.7,29.80,SSW,195,0.0,3.0,89,0.00,,---,0.00,VWS V14.00,2013-02-14 09:00:00,
2013-02-14 04:30:00,33.4,30.5,29.80,SSW,211,0.0,3.0,89,0.00,,---,0.00,VWS V14.00,2013-02-14 09:30:00,
2013-02-14 05:00:00,33.3,30.7,29.79,SSW,210,0.0,2.0,90,0.00,,---,0.00,VWS V14.00,2013-02-14 10:00:00,
2013-02-14 05:30:00,33.2,30.6,29.79,SSW,205,0.0,2.0,90,0.00,,---,0.00,VWS V14.00,2013-02-14 10:30:00,
2013-02-14 06:00:00,33.4,30.8,29.79,SE,143,0.0,4.0,90,0.00,,---,0.00,VWS V14.00,2013-02-14 11:00:00,
2013-02-14 06:30:00,33.9,31.3,29.78,South,190,2.0,7.0,90,0.00,,---,0.00,VWS V14.00,2013-02-14 11:30:00,
2013-02-14 07:00:00,34.1,31.8,29.78,SSW,212,0.0,8.0,91,0.00,,---,0.00,VWS V14.00,2013-02-14 12:00:00,
2013-02-14 07:30:00,34.3,32.0,29.77,SE,132,2.0,6.0,91,0.00,,---,0.00,VWS V14.00,2013-02-14 12:30:00,
2013-02-14 08:00:00,34.3,32.0,29.77,SE,129,2.0,6.0,91,0.00,,---,0.00,VWS V14.00,2013-02-14 13:00:00,
2013-02-14 08:30:00,34.4,32.3,29.76,SSE,162,2.0,7.0,92,0.00,,---,0.00,VWS V14.00,2013-02-14 13:30:00,
2013-02-14 09:00:00,35.0,32.9,29.75,SSE,168,3.0,9.0,92,0.00,,---,0.00,VWS V14.00,2013-02-14 14:00:00,
2013-02-14 09:30:00,35.8,33.4,29.76,South,172,1.0,9.0,91,0.00,,---,0.00,VWS V14.00,2013-02-14 14:30:00,
2013-02-14 10:00:00,36.9,34.2,29.75,SSW,201,4.0,10.0,90,0.00,,---,0.00,VWS V14.00,2013-02-14 15:00:00,
2013-02-14 10:30:00,37.9,34.7,29.75,SW,229,7.0,11.0,88,0.00,,---,0.00,VWS V14.00,2013-02-14 15:30:00,
2013-02-14 11:00:00,38.5,34.7,29.76,SW,233,8.0,17.0,86,0.00,,---,0.00,VWS V14.00,2013-02-14 16:00:00,
2013-02-14 11:30:00,38.9,34.8,29.75,SSW,198,9.0,12.0,85,0.00,,---,0.00,VWS V14.00,2013-02-14 16:30:00,
2013-02-14 12:00:00,39.2,34.8,29.76,West,264,12.0,15.0,84,0.00,,---,0.00,VWS V14.00,2013-02-14 17:00:00,
2013-02-14 12:30:00,39.4,35.0,29.75,SSW,207,6.0,19.0,84,0.00,,---,0.00,VWS V14.00,2013-02-14 17:30:00,
2013-02-14 13:00:00,39.7,35.0,29.74,West,270,4.0,15.0,83,0.00,,---,0.00,VWS V14.00,2013-02-14 18:00:00,
2013-02-14 13:30:00,39.7,34.7,29.74,West,262,11.0,21.0,82,0.00,,---,0.00,VWS V14.00,2013-02-14 18:30:00,
2013-02-14 14:00:00,39.3,33.7,29.75,WSW,250,13.0,25.0,80,0.00,,---,0.00,VWS V14.00,2013-02-14 19:00:00,
2013-02-14 14:30:00,38.9,32.0,29.76,West,278,12.0,27.0,76,0.00,,---,0.00,VWS V14.00,2013-02-14 19:30:00,
2013-02-14 15:00:00,37.9,31.7,29.77,WSW,256,16.0,29.0,78,0.00,,---,0.00,VWS V14.00,2013-02-14 20:00:00,
2013-02-14 15:30:00,37.6,31.1,29.78,West,280,11.0,25.0,77,0.00,,---,0.00,VWS V14.00,2013-02-14 20:30:00,
2013-02-14 16:00:00,37.6,31.1,29.80,West,271,16.0,21.0,77,0.00,,---,0.00,VWS V14.00,2013-02-14 21:00:00,
2013-02-14 16:30:00,37.3,31.4,29.81,West,267,10.0,22.0,79,0.00,,---,0.00,VWS V14.00,2013-02-14 21:30:00,
2013-02-14 17:00:00,37.2,31.6,29.82,West,269,12.0,24.0,80,0.00,,---,0.00,VWS V14.00,2013-02-14 22:00:00,
2013-02-14 17:30:00,37.3,31.4,29.85,West,271,15.0,22.0,79,0.00,,---,0.00,VWS V14.00,2013-02-14 22:30:00,
2013-02-14 18:00:00,37.2,31.3,29.86,WNW,282,12.0,21.0,79,0.00,,---,0.00,VWS V14.00,2013-02-14 23:00:00,
2013-02-14 18:30:00,37.2,30.7,29.87,West,281,10.0,22.0,77,0.00,,---,0.00,VWS V14.00,2013-02-14 23:30:00,
2013-02-14 19:00:00,37.2,30.7,29.89,West,279,12.0,21.0,77,0.00,,---,0.00,VWS V14.00,2013-02-15 00:00:00,
2013-02-14 19:30:00,37.2,29.7,29.91,WNW,284,7.0,22.0,74,0.00,,---,0.00,VWS V14.00,2013-02-15 00:30:00,
2013-02-14 20:00:00,36.9,28.7,29.93,WNW,287,7.0,15.0,72,0.00,,---,0.00,VWS V14.00,2013-02-15 01:00:00,
2013-02-14 20:30:00,36.6,29.1,29.93,WNW,291,7.0,13.0,74,0.00,,---,0.00,VWS V14.00,2013-02-15 01:30:00,
2013-02-14 21:00:00,36.3,29.1,29.94,West,277,5.0,13.0,75,0.00,,---,0.00,VWS V14.00,2013-02-15 02:00:00,
2013-02-14 21:30:00,36.3,26.8,29.95,WNW,291,12.0,18.0,68,0.00,,---,0.00,VWS V14.00,2013-02-15 02:30:00,
2013-02-14 22:00:00,35.6,25.7,29.96,WNW,300,11.0,19.0,67,0.00,,---,0.00,VWS V14.00,2013-02-15 03:00:00,
2013-02-14 22:30:00,34.5,27.7,29.96,NW,313,6.0,15.0,76,0.00,,---,0.00,VWS V14.00,2013-02-15 03:30:00,
2013-02-14 23:00:00,34.2,26.1,29.97,WNW,297,10.0,14.0,72,0.00,,---,0.00,VWS V14.00,2013-02-15 04:00:00,
2013-02-14 23:30:00,33.9,25.8,29.96,WNW,300,6.0,15.0,72,0.00,,---,0.00,VWS V14.00,2013-02-15 04:30:00,